Southport, North Carolina
Current Conditions -  °F | °C
As of 10:55 AM on Friday 28 Nov 2014 (Local Time) from KSUT Reporting Station
Clear Clear  
Wind Chill: 35°   Ceiling: Unl
Heat Index: 42°   Visibility: 10mi
Dew Point: 22°   Wind: 14mph
Humidity: 45%   Direction: 20°NNE
Pressure: 30.36"   Gusts: 20mph
Location:  33.92°N, 78.02°W
Report Text: KSUT 281555Z AUTO 02012G17KT 10SM CLR 06/M05 A3036 RMK AO2 T00571054
Loading
Personal Weather Stations






























Interactive Weather Map New forecast layout! Learn more

10-Day Weather Forecast

Advertisements
Track Severe Weather on mobile